sensor_id;sensor_type;location;lat;lon;timestamp;P1;durP1;ratioP1;P2;durP2;ratioP2
15968;SDS011;8085;53.472;9.794;2022-07-26T00:00:26;6.50;;;2.20;;
15968;SDS011;8085;53.472;9.794;2022-07-26T00:02:53;7.87;;;2.40;;
15968;SDS011;8085;53.472;9.794;2022-07-26T00:05:22;7.63;;;2.30;;
15968;SDS011;8085;53.472;9.794;2022-07-26T00:07:49;6.57;;;2.20;;
15968;SDS011;8085;53.472;9.794;2022-07-26T00:10:34;8.57;;;2.50;;
15968;SDS011;8085;53.472;9.794;2022-07-26T00:13:02;6.13;;;2.30;;
15968;SDS011;8085;53.472;9.794;2022-07-26T00:15:32;5.00;;;2.50;;
15968;SDS011;8085;53.472;9.794;2022-07-26T00:21:20;5.73;;;2.37;;
15968;SDS011;8085;53.472;9.794;2022-07-26T00:24:01;8.40;;;2.93;;
15968;SDS011;8085;53.472;9.794;2022-07-26T00:29:50;7.03;;;2.27;;
15968;SDS011;8085;53.472;9.794;2022-07-26T00:35:29;9.07;;;2.60;;
15968;SDS011;8085;53.472;9.794;2022-07-26T00:40:58;6.53;;;2.43;;
15968;SDS011;8085;53.472;9.794;2022-07-26T00:43:28;4.57;;;2.37;;
15968;SDS011;8085;53.472;9.794;2022-07-26T02:14:31;7.50;;;2.13;;
15968;SDS011;8085;53.472;9.794;2022-07-26T03:02:49;7.87;;;2.37;;
15968;SDS011;8085;53.472;9.794;2022-07-26T04:09:45;5.83;;;2.70;;
15968;SDS011;8085;53.472;9.794;2022-07-26T04:26:39;9.33;;;2.70;;
15968;SDS011;8085;53.472;9.794;2022-07-26T04:29:07;9.87;;;2.90;;
15968;SDS011;8085;53.472;9.794;2022-07-26T04:31:56;9.07;;;2.63;;
15968;SDS011;8085;53.472;9.794;2022-07-26T04:34:34;13.27;;;3.00;;
15968;SDS011;8085;53.472;9.794;2022-07-26T04:37:15;12.17;;;3.20;;
15968;SDS011;8085;53.472;9.794;2022-07-26T04:39:48;7.77;;;2.43;;
15968;SDS011;8085;53.472;9.794;2022-07-26T04:42:25;10.10;;;2.93;;
15968;SDS011;8085;53.472;9.794;2022-07-26T04:45:07;9.23;;;3.10;;
15968;SDS011;8085;53.472;9.794;2022-07-26T04:47:37;10.13;;;2.87;;
15968;SDS011;8085;53.472;9.794;2022-07-26T04:50:09;11.70;;;2.63;;
15968;SDS011;8085;53.472;9.794;2022-07-26T04:53:04;7.60;;;2.50;;
15968;SDS011;8085;53.472;9.794;2022-07-26T04:55:56;10.50;;;2.97;;
15968;SDS011;8085;53.472;9.794;2022-07-26T04:58:39;10.30;;;2.63;;
15968;SDS011;8085;53.472;9.794;2022-07-26T05:01:07;7.47;;;2.53;;
15968;SDS011;8085;53.472;9.794;2022-07-26T05:03:45;8.27;;;2.70;;
15968;SDS011;8085;53.472;9.794;2022-07-26T05:09:23;9.13;;;2.60;;
15968;SDS011;8085;53.472;9.794;2022-07-26T05:11:52;10.90;;;2.53;;
15968;SDS011;8085;53.472;9.794;2022-07-26T05:14:23;10.07;;;3.03;;
15968;SDS011;8085;53.472;9.794;2022-07-26T05:36:36;8.43;;;2.67;;
15968;SDS011;8085;53.472;9.794;2022-07-26T05:39:21;10.20;;;2.80;;
15968;SDS011;8085;53.472;9.794;2022-07-26T05:41:55;8.73;;;3.33;;
15968;SDS011;8085;53.472;9.794;2022-07-26T05:44:22;3.77;;;2.00;;
15968;SDS011;8085;53.472;9.794;2022-07-26T05:46:49;4.67;;;2.13;;
15968;SDS011;8085;53.472;9.794;2022-07-26T05:49:18;5.63;;;2.00;;
15968;SDS011;8085;53.472;9.794;2022-07-26T05:51:45;4.27;;;1.60;;
15968;SDS011;8085;53.472;9.794;2022-07-26T05:54:12;4.47;;;1.83;;
15968;SDS011;8085;53.472;9.794;2022-07-26T05:56:39;3.63;;;1.63;;
15968;SDS011;8085;53.472;9.794;2022-07-26T05:59:06;4.47;;;1.63;;
15968;SDS011;8085;53.472;9.794;2022-07-26T06:01:33;6.20;;;1.73;;
15968;SDS011;8085;53.472;9.794;2022-07-26T06:04:00;3.33;;;1.63;;
15968;SDS011;8085;53.472;9.794;2022-07-26T06:06:28;6.00;;;1.90;;
15968;SDS011;8085;53.472;9.794;2022-07-26T06:08:56;3.30;;;1.80;;
15968;SDS011;8085;53.472;9.794;2022-07-26T06:11:23;3.10;;;1.80;;
15968;SDS011;8085;53.472;9.794;2022-07-26T06:13:50;4.50;;;1.80;;
15968;SDS011;8085;53.472;9.794;2022-07-26T06:16:17;6.03;;;2.00;;
15968;SDS011;8085;53.472;9.794;2022-07-26T06:18:44;2.30;;;1.50;;
15968;SDS011;8085;53.472;9.794;2022-07-26T06:21:11;6.60;;;1.90;;
15968;SDS011;8085;53.472;9.794;2022-07-26T06:23:43;5.77;;;1.73;;
15968;SDS011;8085;53.472;9.794;2022-07-26T06:26:13;4.73;;;1.73;;
15968;SDS011;8085;53.472;9.794;2022-07-26T06:28:43;8.90;;;1.50;;
15968;SDS011;8085;53.472;9.794;2022-07-26T06:31:16;4.13;;;1.60;;
15968;SDS011;8085;53.472;9.794;2022-07-26T06:33:50;4.53;;;1.57;;
15968;SDS011;8085;53.472;9.794;2022-07-26T06:36:29;3.90;;;1.60;;
15968;SDS011;8085;53.472;9.794;2022-07-26T06:39:02;9.40;;;1.90;;
15968;SDS011;8085;53.472;9.794;2022-07-26T06:41:42;4.17;;;1.47;;
15968;SDS011;8085;53.472;9.794;2022-07-26T06:44:24;2.03;;;1.50;;
15968;SDS011;8085;53.472;9.794;2022-07-26T06:49:41;4.43;;;1.87;;
15968;SDS011;8085;53.472;9.794;2022-07-26T07:02:27;5.13;;;1.30;;
15968;SDS011;8085;53.472;9.794;2022-07-26T07:05:38;3.37;;;1.10;;
15968;SDS011;8085;53.472;9.794;2022-07-26T07:08:19;4.23;;;1.10;;
15968;SDS011;8085;53.472;9.794;2022-07-26T07:11:03;2.60;;;0.80;;
15968;SDS011;8085;53.472;9.794;2022-07-26T07:14:45;4.60;;;0.80;;
15968;SDS011;8085;53.472;9.794;2022-07-26T07:21:03;2.43;;;0.80;;
15968;SDS011;8085;53.472;9.794;2022-07-26T07:29:23;2.20;;;0.60;;
15968;SDS011;8085;53.472;9.794;2022-07-26T07:31:50;3.33;;;0.87;;
15968;SDS011;8085;53.472;9.794;2022-07-26T07:34:17;4.33;;;0.97;;
15968;SDS011;8085;53.472;9.794;2022-07-26T07:36:47;2.47;;;1.00;;
15968;SDS011;8085;53.472;9.794;2022-07-26T07:39:14;3.60;;;0.60;;
15968;SDS011;8085;53.472;9.794;2022-07-26T07:41:41;1.93;;;0.60;;
15968;SDS011;8085;53.472;9.794;2022-07-26T07:44:09;1.80;;;0.60;;
15968;SDS011;8085;53.472;9.794;2022-07-26T07:46:36;2.13;;;0.67;;
15968;SDS011;8085;53.472;9.794;2022-07-26T07:49:03;2.70;;;0.50;;
15968;SDS011;8085;53.472;9.794;2022-07-26T07:51:31;3.30;;;0.67;;
15968;SDS011;8085;53.472;9.794;2022-07-26T07:54:00;2.70;;;0.70;;
15968;SDS011;8085;53.472;9.794;2022-07-26T07:56:27;2.17;;;0.70;;
15968;SDS011;8085;53.472;9.794;2022-07-26T07:58:54;2.63;;;0.60;;
15968;SDS011;8085;53.472;9.794;2022-07-26T08:01:23;3.30;;;0.83;;
15968;SDS011;8085;53.472;9.794;2022-07-26T08:03:50;1.80;;;0.47;;
15968;SDS011;8085;53.472;9.794;2022-07-26T08:06:18;1.50;;;0.60;;
15968;SDS011;8085;53.472;9.794;2022-07-26T08:08:45;3.90;;;0.57;;
15968;SDS011;8085;53.472;9.794;2022-07-26T08:11:15;2.13;;;0.73;;
15968;SDS011;8085;53.472;9.794;2022-07-26T08:13:42;4.77;;;0.67;;
15968;SDS011;8085;53.472;9.794;2022-07-26T08:16:09;2.07;;;0.60;;
15968;SDS011;8085;53.472;9.794;2022-07-26T08:21:50;1.70;;;0.50;;
15968;SDS011;8085;53.472;9.794;2022-07-26T08:24:19;2.70;;;0.53;;
15968;SDS011;8085;53.472;9.794;2022-07-26T08:26:46;3.70;;;0.67;;
15968;SDS011;8085;53.472;9.794;2022-07-26T08:40:40;4.07;;;0.80;;
15968;SDS011;8085;53.472;9.794;2022-07-26T08:43:14;1.23;;;0.40;;
15968;SDS011;8085;53.472;9.794;2022-07-26T08:45:41;0.93;;;0.43;;
15968;SDS011;8085;53.472;9.794;2022-07-26T08:48:28;3.00;;;0.50;;
15968;SDS011;8085;53.472;9.794;2022-07-26T08:51:22;2.17;;;0.37;;
15968;SDS011;8085;53.472;9.794;2022-07-26T08:54:03;2.27;;;0.37;;
15968;SDS011;8085;53.472;9.794;2022-07-26T08:57:12;2.07;;;0.60;;
15968;SDS011;8085;53.472;9.794;2022-07-26T08:59:43;2.43;;;0.57;;
15968;SDS011;8085;53.472;9.794;2022-07-26T09:02:12;1.53;;;0.50;;
15968;SDS011;8085;53.472;9.794;2022-07-26T09:07:15;0.47;;;0.40;;
15968;SDS011;8085;53.472;9.794;2022-07-26T09:12:45;2.23;;;0.47;;
15968;SDS011;8085;53.472;9.794;2022-07-26T09:15:20;1.43;;;0.40;;
15968;SDS011;8085;53.472;9.794;2022-07-26T09:17:50;6.23;;;1.00;;
15968;SDS011;8085;53.472;9.794;2022-07-26T09:20:19;4.37;;;0.77;;
15968;SDS011;8085;53.472;9.794;2022-07-26T09:25:29;2.63;;;0.57;;
15968;SDS011;8085;53.472;9.794;2022-07-26T09:27:58;5.00;;;1.03;;
15968;SDS011;8085;53.472;9.794;2022-07-26T09:30:29;4.47;;;1.00;;
15968;SDS011;8085;53.472;9.794;2022-07-26T09:33:01;1.63;;;0.60;;
15968;SDS011;8085;53.472;9.794;2022-07-26T09:35:58;3.43;;;0.67;;
15968;SDS011;8085;53.472;9.794;2022-07-26T09:38:44;2.80;;;0.50;;
15968;SDS011;8085;53.472;9.794;2022-07-26T09:41:17;3.57;;;0.73;;
15968;SDS011;8085;53.472;9.794;2022-07-26T09:43:46;2.30;;;0.80;;
15968;SDS011;8085;53.472;9.794;2022-07-26T09:46:13;2.93;;;0.70;;
15968;SDS011;8085;53.472;9.794;2022-07-26T09:48:41;2.27;;;0.60;;
15968;SDS011;8085;53.472;9.794;2022-07-26T09:51:08;2.97;;;0.60;;
15968;SDS011;8085;53.472;9.794;2022-07-26T09:53:39;4.20;;;1.00;;
15968;SDS011;8085;53.472;9.794;2022-07-26T09:56:07;3.90;;;0.60;;
15968;SDS011;8085;53.472;9.794;2022-07-26T09:58:34;4.00;;;0.70;;
15968;SDS011;8085;53.472;9.794;2022-07-26T10:01:03;0.90;;;0.50;;
15968;SDS011;8085;53.472;9.794;2022-07-26T10:03:31;2.87;;;0.87;;
15968;SDS011;8085;53.472;9.794;2022-07-26T10:05:59;3.57;;;0.60;;
15968;SDS011;8085;53.472;9.794;2022-07-26T10:08:28;1.60;;;0.73;;
15968;SDS011;8085;53.472;9.794;2022-07-26T10:10:59;2.33;;;0.80;;
15968;SDS011;8085;53.472;9.794;2022-07-26T10:13:29;3.30;;;0.87;;
15968;SDS011;8085;53.472;9.794;2022-07-26T10:15:56;3.60;;;0.80;;
15968;SDS011;8085;53.472;9.794;2022-07-26T10:18:43;1.83;;;0.50;;
15968;SDS011;8085;53.472;9.794;2022-07-26T10:21:21;3.10;;;0.83;;
15968;SDS011;8085;53.472;9.794;2022-07-26T10:23:50;4.37;;;1.27;;
15968;SDS011;8085;53.472;9.794;2022-07-26T10:26:39;3.70;;;0.83;;
15968;SDS011;8085;53.472;9.794;2022-07-26T10:29:23;3.60;;;0.87;;
15968;SDS011;8085;53.472;9.794;2022-07-26T10:34:41;3.57;;;0.50;;
15968;SDS011;8085;53.472;9.794;2022-07-26T10:37:10;2.13;;;0.40;;
15968;SDS011;8085;53.472;9.794;2022-07-26T10:39:49;3.17;;;0.97;;
15968;SDS011;8085;53.472;9.794;2022-07-26T10:43:15;3.10;;;0.63;;
15968;SDS011;8085;53.472;9.794;2022-07-26T10:49:27;4.80;;;0.90;;
15968;SDS011;8085;53.472;9.794;2022-07-26T10:58:38;3.53;;;0.83;;
15968;SDS011;8085;53.472;9.794;2022-07-26T11:04:16;3.20;;;0.83;;
15968;SDS011;8085;53.472;9.794;2022-07-26T11:06:59;2.40;;;0.70;;
15968;SDS011;8085;53.472;9.794;2022-07-26T11:10:31;3.80;;;0.80;;
15968;SDS011;8085;53.472;9.794;2022-07-26T11:15:57;3.77;;;0.80;;
15968;SDS011;8085;53.472;9.794;2022-07-26T11:19:10;8.73;;;1.20;;
15968;SDS011;8085;53.472;9.794;2022-07-26T11:26:17;4.60;;;1.17;;
15968;SDS011;8085;53.472;9.794;2022-07-26T11:31:37;3.70;;;1.10;;
15968;SDS011;8085;53.472;9.794;2022-07-26T11:34:09;4.37;;;1.00;;
15968;SDS011;8085;53.472;9.794;2022-07-26T11:36:43;4.83;;;0.93;;
15968;SDS011;8085;53.472;9.794;2022-07-26T11:39:11;3.37;;;1.07;;
15968;SDS011;8085;53.472;9.794;2022-07-26T11:41:40;3.83;;;0.70;;
15968;SDS011;8085;53.472;9.794;2022-07-26T11:44:13;4.90;;;1.00;;
15968;SDS011;8085;53.472;9.794;2022-07-26T11:46:42;3.10;;;1.00;;
15968;SDS011;8085;53.472;9.794;2022-07-26T11:49:22;6.10;;;1.60;;
15968;SDS011;8085;53.472;9.794;2022-07-26T11:52:01;3.33;;;1.00;;
15968;SDS011;8085;53.472;9.794;2022-07-26T11:54:32;5.70;;;1.27;;
15968;SDS011;8085;53.472;9.794;2022-07-26T11:57:19;3.57;;;1.13;;
15968;SDS011;8085;53.472;9.794;2022-07-26T11:59:47;4.93;;;1.50;;
15968;SDS011;8085;53.472;9.794;2022-07-26T12:02:16;5.83;;;1.27;;
15968;SDS011;8085;53.472;9.794;2022-07-26T12:04:46;7.27;;;1.73;;
15968;SDS011;8085;53.472;9.794;2022-07-26T12:07:22;7.57;;;1.90;;
15968;SDS011;8085;53.472;9.794;2022-07-26T12:09:50;4.33;;;0.83;;
15968;SDS011;8085;53.472;9.794;2022-07-26T12:12:36;5.33;;;1.03;;
15968;SDS011;8085;53.472;9.794;2022-07-26T12:15:15;2.73;;;1.20;;
15968;SDS011;8085;53.472;9.794;2022-07-26T12:21:07;3.30;;;1.03;;
15968;SDS011;8085;53.472;9.794;2022-07-26T12:27:07;5.30;;;1.40;;
15968;SDS011;8085;53.472;9.794;2022-07-26T12:33:07;7.17;;;1.17;;
15968;SDS011;8085;53.472;9.794;2022-07-26T12:35:35;2.37;;;1.03;;
15968;SDS011;8085;53.472;9.794;2022-07-26T12:38:04;3.13;;;1.00;;
15968;SDS011;8085;53.472;9.794;2022-07-26T12:40:38;5.87;;;1.00;;
15968;SDS011;8085;53.472;9.794;2022-07-26T12:43:06;2.93;;;1.00;;
15968;SDS011;8085;53.472;9.794;2022-07-26T12:45:36;4.80;;;1.10;;
15968;SDS011;8085;53.472;9.794;2022-07-26T12:48:05;5.40;;;1.20;;
15968;SDS011;8085;53.472;9.794;2022-07-26T12:50:36;5.43;;;1.13;;
15968;SDS011;8085;53.472;9.794;2022-07-26T12:53:11;4.43;;;1.10;;
15968;SDS011;8085;53.472;9.794;2022-07-26T12:55:43;2.40;;;0.77;;
15968;SDS011;8085;53.472;9.794;2022-07-26T12:58:10;6.53;;;1.30;;
15968;SDS011;8085;53.472;9.794;2022-07-26T13:00:38;4.77;;;1.10;;
15968;SDS011;8085;53.472;9.794;2022-07-26T13:03:05;6.50;;;1.30;;
15968;SDS011;8085;53.472;9.794;2022-07-26T13:05:32;3.20;;;1.00;;
15968;SDS011;8085;53.472;9.794;2022-07-26T13:07:59;3.77;;;1.20;;
15968;SDS011;8085;53.472;9.794;2022-07-26T13:10:27;5.00;;;1.00;;
15968;SDS011;8085;53.472;9.794;2022-07-26T13:12:54;7.13;;;1.10;;
15968;SDS011;8085;53.472;9.794;2022-07-26T13:15:21;3.73;;;0.80;;
15968;SDS011;8085;53.472;9.794;2022-07-26T13:17:49;4.80;;;1.00;;
15968;SDS011;8085;53.472;9.794;2022-07-26T13:20:18;2.10;;;0.83;;
15968;SDS011;8085;53.472;9.794;2022-07-26T13:22:45;4.17;;;1.27;;
15968;SDS011;8085;53.472;9.794;2022-07-26T13:25:14;3.23;;;0.77;;
15968;SDS011;8085;53.472;9.794;2022-07-26T13:27:45;4.87;;;1.20;;
15968;SDS011;8085;53.472;9.794;2022-07-26T13:30:32;4.10;;;1.23;;
15968;SDS011;8085;53.472;9.794;2022-07-26T13:32:59;4.43;;;1.10;;
15968;SDS011;8085;53.472;9.794;2022-07-26T13:35:26;3.03;;;0.90;;
15968;SDS011;8085;53.472;9.794;2022-07-26T13:38:03;3.03;;;1.10;;
15968;SDS011;8085;53.472;9.794;2022-07-26T13:40:33;2.63;;;1.20;;
15968;SDS011;8085;53.472;9.794;2022-07-26T13:43:09;2.87;;;0.90;;
15968;SDS011;8085;53.472;9.794;2022-07-26T13:45:36;5.77;;;1.20;;
15968;SDS011;8085;53.472;9.794;2022-07-26T13:48:03;3.90;;;0.80;;
15968;SDS011;8085;53.472;9.794;2022-07-26T13:50:31;4.37;;;1.10;;
15968;SDS011;8085;53.472;9.794;2022-07-26T13:52:58;4.33;;;0.93;;
15968;SDS011;8085;53.472;9.794;2022-07-26T13:55:25;3.33;;;0.77;;
15968;SDS011;8085;53.472;9.794;2022-07-26T13:57:52;4.40;;;0.80;;
15968;SDS011;8085;53.472;9.794;2022-07-26T14:00:20;6.40;;;1.03;;
15968;SDS011;8085;53.472;9.794;2022-07-26T14:02:48;3.70;;;1.03;;
15968;SDS011;8085;53.472;9.794;2022-07-26T14:05:15;5.80;;;0.90;;
15968;SDS011;8085;53.472;9.794;2022-07-26T14:07:42;3.47;;;1.10;;
15968;SDS011;8085;53.472;9.794;2022-07-26T14:10:09;2.13;;;0.80;;
15968;SDS011;8085;53.472;9.794;2022-07-26T14:12:36;4.43;;;0.80;;
15968;SDS011;8085;53.472;9.794;2022-07-26T14:15:05;1.00;;;0.60;;
15968;SDS011;8085;53.472;9.794;2022-07-26T14:17:35;3.07;;;0.90;;
15968;SDS011;8085;53.472;9.794;2022-07-26T14:20:04;2.27;;;0.80;;
15968;SDS011;8085;53.472;9.794;2022-07-26T14:22:36;4.90;;;0.93;;
15968;SDS011;8085;53.472;9.794;2022-07-26T14:25:04;4.57;;;1.47;;
15968;SDS011;8085;53.472;9.794;2022-07-26T14:27:32;3.63;;;0.93;;
15968;SDS011;8085;53.472;9.794;2022-07-26T14:29:59;4.43;;;1.20;;
15968;SDS011;8085;53.472;9.794;2022-07-26T14:32:26;7.33;;;1.07;;
15968;SDS011;8085;53.472;9.794;2022-07-26T14:34:55;4.07;;;1.13;;
15968;SDS011;8085;53.472;9.794;2022-07-26T14:37:23;7.53;;;0.97;;
15968;SDS011;8085;53.472;9.794;2022-07-26T14:42:24;3.80;;;1.23;;
15968;SDS011;8085;53.472;9.794;2022-07-26T14:45:00;3.70;;;0.90;;
15968;SDS011;8085;53.472;9.794;2022-07-26T14:47:28;4.27;;;1.17;;
15968;SDS011;8085;53.472;9.794;2022-07-26T14:49:56;4.47;;;1.00;;
15968;SDS011;8085;53.472;9.794;2022-07-26T14:52:29;4.63;;;1.10;;
15968;SDS011;8085;53.472;9.794;2022-07-26T14:54:56;4.17;;;0.97;;
15968;SDS011;8085;53.472;9.794;2022-07-26T14:57:23;2.30;;;0.90;;
15968;SDS011;8085;53.472;9.794;2022-07-26T14:59:50;4.70;;;1.00;;
15968;SDS011;8085;53.472;9.794;2022-07-26T15:02:19;5.50;;;1.27;;
15968;SDS011;8085;53.472;9.794;2022-07-26T15:04:46;4.70;;;1.07;;
15968;SDS011;8085;53.472;9.794;2022-07-26T15:07:15;2.03;;;1.00;;
15968;SDS011;8085;53.472;9.794;2022-07-26T15:09:42;4.87;;;1.73;;
15968;SDS011;8085;53.472;9.794;2022-07-26T15:12:16;5.97;;;1.10;;
15968;SDS011;8085;53.472;9.794;2022-07-26T15:15:15;5.17;;;1.37;;
15968;SDS011;8085;53.472;9.794;2022-07-26T15:17:42;2.97;;;1.30;;
15968;SDS011;8085;53.472;9.794;2022-07-26T15:20:09;5.50;;;1.23;;
15968;SDS011;8085;53.472;9.794;2022-07-26T15:22:38;3.43;;;1.00;;
15968;SDS011;8085;53.472;9.794;2022-07-26T15:25:05;5.23;;;1.30;;
15968;SDS011;8085;53.472;9.794;2022-07-26T15:27:33;6.27;;;1.00;;
15968;SDS011;8085;53.472;9.794;2022-07-26T15:30:02;5.30;;;1.13;;
15968;SDS011;8085;53.472;9.794;2022-07-26T15:32:55;7.60;;;1.10;;
15968;SDS011;8085;53.472;9.794;2022-07-26T15:35:23;6.23;;;1.10;;
15968;SDS011;8085;53.472;9.794;2022-07-26T15:37:54;4.20;;;1.00;;
15968;SDS011;8085;53.472;9.794;2022-07-26T15:40:21;4.47;;;1.47;;
15968;SDS011;8085;53.472;9.794;2022-07-26T15:42:48;4.17;;;1.10;;
15968;SDS011;8085;53.472;9.794;2022-07-26T15:45:19;2.67;;;1.13;;
15968;SDS011;8085;53.472;9.794;2022-07-26T15:47:46;3.03;;;0.87;;
15968;SDS011;8085;53.472;9.794;2022-07-26T15:50:14;4.80;;;1.20;;
15968;SDS011;8085;53.472;9.794;2022-07-26T15:52:43;4.17;;;1.10;;
15968;SDS011;8085;53.472;9.794;2022-07-26T15:55:12;4.50;;;1.07;;
15968;SDS011;8085;53.472;9.794;2022-07-26T15:57:41;3.03;;;0.87;;
15968;SDS011;8085;53.472;9.794;2022-07-26T16:00:09;2.60;;;0.87;;
15968;SDS011;8085;53.472;9.794;2022-07-26T16:02:37;2.50;;;0.97;;
15968;SDS011;8085;53.472;9.794;2022-07-26T16:05:05;4.90;;;1.00;;
15968;SDS011;8085;53.472;9.794;2022-07-26T16:07:33;3.57;;;0.90;;
15968;SDS011;8085;53.472;9.794;2022-07-26T16:10:00;3.07;;;0.93;;
15968;SDS011;8085;53.472;9.794;2022-07-26T16:12:28;3.30;;;0.87;;
15968;SDS011;8085;53.472;9.794;2022-07-26T16:14:55;3.20;;;0.80;;
15968;SDS011;8085;53.472;9.794;2022-07-26T16:17:22;3.37;;;0.80;;
15968;SDS011;8085;53.472;9.794;2022-07-26T16:19:49;3.97;;;0.80;;
15968;SDS011;8085;53.472;9.794;2022-07-26T16:22:16;2.17;;;0.90;;
15968;SDS011;8085;53.472;9.794;2022-07-26T16:24:43;5.63;;;1.00;;
15968;SDS011;8085;53.472;9.794;2022-07-26T16:27:10;1.63;;;0.80;;
15968;SDS011;8085;53.472;9.794;2022-07-26T16:29:39;2.27;;;0.93;;
15968;SDS011;8085;53.472;9.794;2022-07-26T16:32:06;5.23;;;1.40;;
15968;SDS011;8085;53.472;9.794;2022-07-26T16:34:33;3.37;;;0.90;;
15968;SDS011;8085;53.472;9.794;2022-07-26T16:37:01;3.90;;;1.00;;
15968;SDS011;8085;53.472;9.794;2022-07-26T16:39:28;3.97;;;1.03;;
15968;SDS011;8085;53.472;9.794;2022-07-26T16:41:55;4.97;;;1.00;;
15968;SDS011;8085;53.472;9.794;2022-07-26T16:44:22;4.57;;;1.00;;
15968;SDS011;8085;53.472;9.794;2022-07-26T16:46:51;6.97;;;1.37;;
15968;SDS011;8085;53.472;9.794;2022-07-26T16:49:18;4.13;;;1.03;;
15968;SDS011;8085;53.472;9.794;2022-07-26T16:51:45;8.43;;;1.53;;
15968;SDS011;8085;53.472;9.794;2022-07-26T16:54:12;4.17;;;1.00;;
15968;SDS011;8085;53.472;9.794;2022-07-26T16:56:39;3.07;;;0.80;;
15968;SDS011;8085;53.472;9.794;2022-07-26T16:59:06;4.37;;;1.23;;
15968;SDS011;8085;53.472;9.794;2022-07-26T17:01:33;3.07;;;0.80;;
15968;SDS011;8085;53.472;9.794;2022-07-26T17:04:01;8.00;;;1.23;;
15968;SDS011;8085;53.472;9.794;2022-07-26T17:06:28;2.90;;;0.90;;
15968;SDS011;8085;53.472;9.794;2022-07-26T17:08:56;6.43;;;1.10;;
15968;SDS011;8085;53.472;9.794;2022-07-26T17:11:23;2.90;;;0.70;;
15968;SDS011;8085;53.472;9.794;2022-07-26T17:13:50;4.23;;;0.83;;
15968;SDS011;8085;53.472;9.794;2022-07-26T17:16:17;1.77;;;0.90;;
15968;SDS011;8085;53.472;9.794;2022-07-26T17:18:44;2.60;;;0.90;;
15968;SDS011;8085;53.472;9.794;2022-07-26T17:21:13;1.33;;;0.70;;
15968;SDS011;8085;53.472;9.794;2022-07-26T17:23:40;2.17;;;0.80;;
15968;SDS011;8085;53.472;9.794;2022-07-26T17:26:07;2.57;;;0.77;;
15968;SDS011;8085;53.472;9.794;2022-07-26T17:28:34;2.53;;;0.70;;
15968;SDS011;8085;53.472;9.794;2022-07-26T17:31:01;2.60;;;0.80;;
15968;SDS011;8085;53.472;9.794;2022-07-26T17:33:28;3.10;;;0.80;;
15968;SDS011;8085;53.472;9.794;2022-07-26T17:35:55;3.60;;;0.70;;
15968;SDS011;8085;53.472;9.794;2022-07-26T17:38:23;4.03;;;0.97;;
15968;SDS011;8085;53.472;9.794;2022-07-26T17:40:50;2.43;;;0.90;;
15968;SDS011;8085;53.472;9.794;2022-07-26T17:43:17;4.20;;;0.70;;
15968;SDS011;8085;53.472;9.794;2022-07-26T17:45:44;2.53;;;0.87;;
15968;SDS011;8085;53.472;9.794;2022-07-26T17:48:11;4.60;;;0.70;;
15968;SDS011;8085;53.472;9.794;2022-07-26T17:50:38;2.77;;;0.70;;
15968;SDS011;8085;53.472;9.794;2022-07-26T17:53:05;1.40;;;0.60;;
15968;SDS011;8085;53.472;9.794;2022-07-26T17:55:33;2.93;;;0.73;;
15968;SDS011;8085;53.472;9.794;2022-07-26T17:58:00;1.87;;;0.50;;
15968;SDS011;8085;53.472;9.794;2022-07-26T18:00:27;4.73;;;0.63;;
15968;SDS011;8085;53.472;9.794;2022-07-26T18:02:54;1.93;;;0.60;;
15968;SDS011;8085;53.472;9.794;2022-07-26T18:05:21;1.53;;;0.57;;
15968;SDS011;8085;53.472;9.794;2022-07-26T18:07:48;1.70;;;0.73;;
15968;SDS011;8085;53.472;9.794;2022-07-26T18:10:15;2.17;;;0.70;;
15968;SDS011;8085;53.472;9.794;2022-07-26T18:12:43;1.70;;;0.60;;
15968;SDS011;8085;53.472;9.794;2022-07-26T18:15:10;2.93;;;0.40;;
15968;SDS011;8085;53.472;9.794;2022-07-26T18:17:37;3.13;;;0.43;;
15968;SDS011;8085;53.472;9.794;2022-07-26T18:20:05;1.77;;;0.60;;
15968;SDS011;8085;53.472;9.794;2022-07-26T18:22:32;5.20;;;0.80;;
15968;SDS011;8085;53.472;9.794;2022-07-26T18:24:59;4.60;;;1.00;;
15968;SDS011;8085;53.472;9.794;2022-07-26T18:27:27;5.20;;;0.93;;
15968;SDS011;8085;53.472;9.794;2022-07-26T18:29:56;1.93;;;0.73;;
15968;SDS011;8085;53.472;9.794;2022-07-26T18:32:23;2.57;;;0.87;;
15968;SDS011;8085;53.472;9.794;2022-07-26T18:34:50;2.10;;;0.60;;
15968;SDS011;8085;53.472;9.794;2022-07-26T18:37:18;3.70;;;0.60;;
15968;SDS011;8085;53.472;9.794;2022-07-26T18:39:45;2.37;;;0.57;;
15968;SDS011;8085;53.472;9.794;2022-07-26T18:42:14;1.77;;;0.70;;
15968;SDS011;8085;53.472;9.794;2022-07-26T18:44:41;1.53;;;0.63;;
15968;SDS011;8085;53.472;9.794;2022-07-26T18:47:10;3.53;;;0.70;;
15968;SDS011;8085;53.472;9.794;2022-07-26T18:49:37;2.47;;;0.63;;
15968;SDS011;8085;53.472;9.794;2022-07-26T18:52:04;3.03;;;0.63;;
15968;SDS011;8085;53.472;9.794;2022-07-26T18:54:31;2.57;;;0.80;;
15968;SDS011;8085;53.472;9.794;2022-07-26T18:56:58;2.00;;;0.70;;
15968;SDS011;8085;53.472;9.794;2022-07-26T18:59:25;5.33;;;1.00;;
15968;SDS011;8085;53.472;9.794;2022-07-26T19:01:53;1.40;;;0.53;;
15968;SDS011;8085;53.472;9.794;2022-07-26T19:04:23;1.73;;;0.57;;
15968;SDS011;8085;53.472;9.794;2022-07-26T19:06:50;3.43;;;0.70;;
15968;SDS011;8085;53.472;9.794;2022-07-26T19:09:17;1.90;;;0.53;;
15968;SDS011;8085;53.472;9.794;2022-07-26T19:11:44;2.80;;;0.70;;
15968;SDS011;8085;53.472;9.794;2022-07-26T19:14:11;2.80;;;0.63;;
15968;SDS011;8085;53.472;9.794;2022-07-26T19:16:38;4.17;;;0.90;;
15968;SDS011;8085;53.472;9.794;2022-07-26T19:19:05;2.90;;;1.00;;
15968;SDS011;8085;53.472;9.794;2022-07-26T19:21:33;6.17;;;0.93;;
15968;SDS011;8085;53.472;9.794;2022-07-26T19:24:01;2.33;;;0.80;;
15968;SDS011;8085;53.472;9.794;2022-07-26T19:26:28;2.60;;;0.70;;
15968;SDS011;8085;53.472;9.794;2022-07-26T19:28:55;5.10;;;1.00;;
15968;SDS011;8085;53.472;9.794;2022-07-26T19:31:22;5.17;;;1.17;;
15968;SDS011;8085;53.472;9.794;2022-07-26T19:33:49;2.23;;;1.13;;
15968;SDS011;8085;53.472;9.794;2022-07-26T19:36:16;3.70;;;0.80;;
15968;SDS011;8085;53.472;9.794;2022-07-26T19:38:44;3.17;;;0.93;;
15968;SDS011;8085;53.472;9.794;2022-07-26T19:41:11;2.90;;;0.70;;
15968;SDS011;8085;53.472;9.794;2022-07-26T19:43:38;3.83;;;1.03;;
15968;SDS011;8085;53.472;9.794;2022-07-26T19:46:05;1.60;;;1.00;;
15968;SDS011;8085;53.472;9.794;2022-07-26T19:48:32;4.33;;;0.80;;
15968;SDS011;8085;53.472;9.794;2022-07-26T19:50:59;1.60;;;0.80;;
15968;SDS011;8085;53.472;9.794;2022-07-26T19:53:26;2.07;;;0.83;;
15968;SDS011;8085;53.472;9.794;2022-07-26T19:55:54;4.17;;;1.00;;
15968;SDS011;8085;53.472;9.794;2022-07-26T19:58:21;3.73;;;1.00;;
15968;SDS011;8085;53.472;9.794;2022-07-26T20:00:48;4.73;;;0.80;;
15968;SDS011;8085;53.472;9.794;2022-07-26T20:03:15;1.30;;;0.77;;
15968;SDS011;8085;53.472;9.794;2022-07-26T20:05:42;1.57;;;0.63;;
15968;SDS011;8085;53.472;9.794;2022-07-26T20:08:09;2.70;;;0.80;;
15968;SDS011;8085;53.472;9.794;2022-07-26T20:10:36;2.63;;;0.70;;
15968;SDS011;8085;53.472;9.794;2022-07-26T20:13:04;2.00;;;0.80;;
15968;SDS011;8085;53.472;9.794;2022-07-26T20:15:31;2.43;;;0.80;;
15968;SDS011;8085;53.472;9.794;2022-07-26T20:17:58;4.60;;;0.97;;
15968;SDS011;8085;53.472;9.794;2022-07-26T20:20:25;1.80;;;0.80;;
15968;SDS011;8085;53.472;9.794;2022-07-26T20:22:53;4.87;;;0.80;;
15968;SDS011;8085;53.472;9.794;2022-07-26T20:25:20;2.87;;;0.73;;
15968;SDS011;8085;53.472;9.794;2022-07-26T20:27:49;2.83;;;0.90;;
15968;SDS011;8085;53.472;9.794;2022-07-26T20:30:18;3.23;;;0.80;;
15968;SDS011;8085;53.472;9.794;2022-07-26T20:32:45;2.73;;;0.80;;
15968;SDS011;8085;53.472;9.794;2022-07-26T20:35:12;3.37;;;0.77;;
15968;SDS011;8085;53.472;9.794;2022-07-26T20:37:39;3.33;;;0.70;;
15968;SDS011;8085;53.472;9.794;2022-07-26T20:40:08;2.50;;;0.87;;
15968;SDS011;8085;53.472;9.794;2022-07-26T20:42:36;2.63;;;0.80;;
15968;SDS011;8085;53.472;9.794;2022-07-26T20:45:03;1.57;;;0.80;;
15968;SDS011;8085;53.472;9.794;2022-07-26T20:47:32;1.27;;;0.63;;
15968;SDS011;8085;53.472;9.794;2022-07-26T20:50:04;2.17;;;0.80;;
15968;SDS011;8085;53.472;9.794;2022-07-26T20:52:32;2.33;;;0.90;;
15968;SDS011;8085;53.472;9.794;2022-07-26T20:54:59;3.23;;;0.80;;